createdAt,value
2018-06-21T00:00:20.470Z,7.43
2018-06-21T00:02:52.963Z,7.43
2018-06-21T00:08:02.234Z,8.50
2018-06-21T00:10:34.642Z,7.93
2018-06-21T00:13:07.429Z,7.40
2018-06-21T00:15:39.512Z,7.83
2018-06-21T00:18:12.213Z,8.23
2018-06-21T00:20:43.450Z,7.57
2018-06-21T00:23:17.635Z,8.03
2018-06-21T00:28:27.928Z,8.30
2018-06-21T00:33:43.212Z,7.43
2018-06-21T00:36:16.429Z,8.20
2018-06-21T00:38:48.715Z,7.60
2018-06-21T00:41:21.744Z,8.23
2018-06-21T00:43:53.434Z,7.93
2018-06-21T00:46:25.586Z,7.23
2018-06-21T00:48:58.065Z,7.87
2018-06-21T00:51:31.308Z,8.10
2018-06-21T00:54:03.672Z,8.70
2018-06-21T00:56:37.182Z,8.47
2018-06-21T01:01:46.026Z,8.00
2018-06-21T01:06:55.333Z,7.70
2018-06-21T01:09:28.672Z,7.53
2018-06-21T01:14:37.586Z,8.10
2018-06-21T01:17:10.249Z,6.80
2018-06-21T01:19:42.730Z,7.30
2018-06-21T01:22:16.540Z,7.90
2018-06-21T01:24:48.769Z,7.50
2018-06-21T01:27:21.980Z,7.67
2018-06-21T01:29:53.958Z,7.10
2018-06-21T01:35:01.336Z,8.07
2018-06-21T01:37:35.128Z,7.37
2018-06-21T01:40:08.030Z,7.67
2018-06-21T01:42:40.611Z,7.73
2018-06-21T01:45:15.232Z,7.43
2018-06-21T01:47:49.378Z,7.60
2018-06-21T01:52:58.471Z,8.05
2018-06-21T01:58:05.070Z,7.95
2018-06-21T02:00:34.173Z,8.30
2018-06-21T02:03:03.498Z,7.07
2018-06-21T02:14:08.608Z,7.70
2018-06-21T02:16:37.632Z,7.90
2018-06-21T02:19:07.940Z,7.83
2018-06-21T02:21:38.356Z,8.00
2018-06-21T02:24:07.399Z,8.17
2018-06-21T02:31:48.185Z,8.23
2018-06-21T02:36:53.281Z,7.93
2018-06-21T02:41:58.208Z,7.60
2018-06-21T02:44:29.450Z,7.62
2018-06-21T02:46:58.518Z,8.57
2018-06-21T02:49:27.591Z,7.83
2018-06-21T02:51:56.674Z,8.20
2018-06-21T02:57:02.782Z,8.57
2018-06-21T02:59:32.928Z,9.33
2018-06-21T03:02:04.089Z,8.50
2018-06-21T03:07:09.063Z,8.50
2018-06-21T03:09:38.105Z,8.73
2018-06-21T03:12:07.165Z,8.70
2018-06-21T03:14:36.226Z,8.93
2018-06-21T03:17:07.390Z,8.93
2018-06-21T03:24:48.061Z,9.90
2018-06-21T03:27:17.129Z,10.10
2018-06-21T03:29:49.180Z,9.90
2018-06-21T03:32:18.893Z,9.40
2018-06-21T03:34:48.906Z,10.37
2018-06-21T03:37:17.965Z,9.33
2018-06-21T03:39:47.149Z,9.60
2018-06-21T03:42:16.375Z,10.30
2018-06-21T03:44:46.416Z,10.23
2018-06-21T03:47:15.465Z,10.50
2018-06-21T03:49:44.708Z,10.63
2018-06-21T03:52:13.809Z,11.70
2018-06-21T03:54:42.850Z,12.20
2018-06-21T03:57:11.929Z,11.43
2018-06-21T04:02:16.701Z,11.10
2018-06-21T04:04:45.966Z,10.27
2018-06-21T04:07:15.944Z,11.50
2018-06-21T04:09:45.033Z,10.80
2018-06-21T04:12:14.470Z,11.37
2018-06-21T04:14:43.861Z,10.63
2018-06-21T04:17:12.920Z,10.27
2018-06-21T04:19:41.983Z,11.17
2018-06-21T04:22:11.217Z,10.63
2018-06-21T04:24:40.311Z,10.60
2018-06-21T04:27:09.353Z,10.20
2018-06-21T04:29:38.430Z,9.37
2018-06-21T04:32:07.732Z,10.13
2018-06-21T04:34:37.702Z,10.97
2018-06-21T04:37:07.678Z,10.68
2018-06-21T04:39:36.750Z,11.30
2018-06-21T04:42:06.759Z,10.40
2018-06-21T04:47:11.766Z,10.40
2018-06-21T04:49:41.251Z,10.20
2018-06-21T04:52:10.316Z,9.47
2018-06-21T04:54:39.381Z,9.87
2018-06-21T04:57:08.774Z,10.30
2018-06-21T04:59:37.816Z,10.60
2018-06-21T05:02:06.871Z,9.17
2018-06-21T05:04:36.333Z,9.20
2018-06-21T05:09:41.115Z,8.80
2018-06-21T05:12:10.251Z,8.70
2018-06-21T05:14:40.205Z,8.87
2018-06-21T05:17:09.263Z,7.70
2018-06-21T05:19:38.444Z,8.40
2018-06-21T05:22:07.743Z,8.60
2018-06-21T05:24:36.829Z,7.20
2018-06-21T05:27:05.892Z,7.93
2018-06-21T05:29:35.050Z,7.40
2018-06-21T05:32:04.162Z,7.97
2018-06-21T05:34:33.195Z,7.47
2018-06-21T05:37:02.360Z,6.82
2018-06-21T05:39:31.415Z,6.53
2018-06-21T05:42:00.457Z,6.83
2018-06-21T05:44:31.969Z,7.03
2018-06-21T05:52:15.568Z,6.28
2018-06-21T05:54:51.639Z,6.10
2018-06-21T05:57:24.756Z,5.90
2018-06-21T05:59:56.524Z,5.80
2018-06-21T06:02:28.325Z,5.40
2018-06-21T06:05:13.372Z,5.60
2018-06-21T06:07:47.987Z,5.00
2018-06-21T06:10:19.751Z,5.90
2018-06-21T06:12:55.080Z,5.40
2018-06-21T06:15:25.978Z,5.07
2018-06-21T06:20:33.935Z,5.23
2018-06-21T06:25:45.396Z,5.32
2018-06-21T06:30:54.313Z,4.70
2018-06-21T06:36:05.246Z,5.03
2018-06-21T06:38:38.709Z,5.37
2018-06-21T06:41:10.515Z,5.27
2018-06-21T06:43:42.574Z,5.40
2018-06-21T06:46:17.170Z,4.80
2018-06-21T06:48:48.035Z,5.13
2018-06-21T06:51:29.780Z,4.93
2018-06-21T06:54:09.313Z,5.17
2018-06-21T06:56:40.505Z,4.93
2018-06-21T06:59:24.044Z,5.37
2018-06-21T07:01:56.446Z,5.10
2018-06-21T07:04:31.880Z,5.00
2018-06-21T07:07:04.026Z,5.05
2018-06-21T07:09:38.587Z,5.32
2018-06-21T07:12:09.201Z,5.33
2018-06-21T07:14:42.255Z,5.43
2018-06-21T07:17:13.492Z,4.83
2018-06-21T07:19:46.294Z,4.77
2018-06-21T07:22:16.818Z,5.63
2018-06-21T07:24:52.341Z,4.90
2018-06-21T07:27:25.157Z,5.43
2018-06-21T07:35:10.081Z,4.53
2018-06-21T07:37:53.453Z,5.50
2018-06-21T07:40:25.881Z,5.10
2018-06-21T07:43:03.649Z,4.20
2018-06-21T07:45:37.725Z,5.57
2018-06-21T07:48:10.600Z,5.07
2018-06-21T07:50:42.209Z,5.10
2018-06-21T07:53:14.464Z,4.82
2018-06-21T07:55:46.628Z,5.90
2018-06-21T07:58:19.745Z,5.03
2018-06-21T08:00:52.130Z,4.93
2018-06-21T08:03:25.060Z,4.93
2018-06-21T08:05:57.431Z,5.60
2018-06-21T08:08:30.665Z,5.13
2018-06-21T08:13:40.775Z,4.80
2018-06-21T08:16:13.516Z,5.07
2018-06-21T08:19:00.027Z,5.53
2018-06-21T08:21:30.471Z,4.90
2018-06-21T08:24:04.224Z,5.07
2018-06-21T08:26:41.217Z,5.00
2018-06-21T08:29:12.817Z,5.20
2018-06-21T08:31:46.134Z,4.10
2018-06-21T08:34:18.940Z,5.07
2018-06-21T08:36:56.852Z,4.40
2018-06-21T08:39:31.383Z,4.33
2018-06-21T08:42:04.707Z,4.80
2018-06-21T08:44:37.335Z,4.70
2018-06-21T08:47:09.124Z,4.50
2018-06-21T08:49:41.784Z,5.00
2018-06-21T08:52:12.315Z,4.77
2018-06-21T08:54:44.154Z,5.13
2018-06-21T08:57:16.449Z,5.43
2018-06-21T08:59:48.432Z,5.53
2018-06-21T09:02:20.884Z,5.50
2018-06-21T09:07:31.585Z,5.37
2018-06-21T09:10:04.482Z,4.83
2018-06-21T09:15:11.663Z,5.53
2018-06-21T09:20:21.378Z,5.10
2018-06-21T09:22:56.599Z,5.77
2018-06-21T09:25:44.391Z,5.10
2018-06-21T09:28:14.591Z,5.07
2018-06-21T09:30:47.568Z,4.40
2018-06-21T09:33:19.197Z,4.97
2018-06-21T09:35:50.949Z,4.40
2018-06-21T09:38:21.145Z,4.50
2018-06-21T09:43:32.046Z,4.70
2018-06-21T09:46:01.431Z,5.07
2018-06-21T09:48:30.668Z,5.30
2018-06-21T09:51:01.200Z,5.20
2018-06-21T09:53:30.269Z,4.70
2018-06-21T09:56:00.298Z,5.00
2018-06-21T09:58:29.372Z,4.72
2018-06-21T10:00:58.663Z,5.17
2018-06-21T10:03:32.902Z,5.20
2018-06-21T10:06:01.959Z,4.70
2018-06-21T10:08:46.429Z,4.17
2018-06-21T10:11:15.473Z,3.60
2018-06-21T10:13:50.307Z,5.10
2018-06-21T10:16:19.361Z,3.60
2018-06-21T10:18:48.414Z,4.10
2018-06-21T10:21:17.473Z,4.33
2018-06-21T10:23:51.111Z,3.72
2018-06-21T10:26:21.126Z,4.10
2018-06-21T10:28:51.144Z,3.75
2018-06-21T10:31:21.280Z,4.30
2018-06-21T10:33:50.341Z,4.20
2018-06-21T10:39:07.088Z,4.20
2018-06-21T10:41:36.282Z,3.80
2018-06-21T10:44:05.309Z,4.03
2018-06-21T10:46:34.379Z,4.27
2018-06-21T10:49:04.593Z,3.70
2018-06-21T10:51:33.808Z,4.07
2018-06-21T10:54:03.551Z,4.10
2018-06-21T10:56:33.516Z,4.10
2018-06-21T10:59:17.946Z,3.80
2018-06-21T11:04:27.317Z,4.55
2018-06-21T11:06:56.601Z,4.70
2018-06-21T11:09:25.645Z,4.18
2018-06-21T11:11:54.701Z,3.70
2018-06-21T11:14:23.865Z,4.00
2018-06-21T11:16:52.932Z,3.80
2018-06-21T11:19:22.860Z,3.97
2018-06-21T11:21:55.712Z,4.33
2018-06-21T11:24:24.749Z,4.00
2018-06-21T11:26:54.064Z,3.77
2018-06-21T11:29:23.167Z,4.20
2018-06-21T11:32:01.210Z,3.77
2018-06-21T11:34:30.316Z,3.90
2018-06-21T11:37:06.738Z,4.03
2018-06-21T11:39:35.829Z,4.23
2018-06-21T11:42:06.127Z,3.65
2018-06-21T11:44:36.044Z,4.20
2018-06-21T11:47:06.650Z,3.47
2018-06-21T11:49:36.073Z,4.00
2018-06-21T11:52:06.330Z,4.30
2018-06-21T11:54:36.290Z,4.50
2018-06-21T11:59:41.865Z,4.60
2018-06-21T12:02:11.642Z,4.50
2018-06-21T12:04:44.446Z,5.50
2018-06-21T12:07:14.609Z,4.30
2018-06-21T12:12:19.729Z,4.00
2018-06-21T12:14:58.760Z,3.77
2018-06-21T12:17:34.817Z,3.60
2018-06-21T12:20:07.003Z,4.40
2018-06-21T12:22:44.731Z,4.40
2018-06-21T12:25:24.041Z,4.70
2018-06-21T12:27:53.637Z,4.93
2018-06-21T12:30:24.922Z,4.70
2018-06-21T12:35:31.215Z,4.50
2018-06-21T12:38:01.052Z,5.17
2018-06-21T12:40:30.274Z,4.87
2018-06-21T12:43:00.296Z,4.50
2018-06-21T12:45:30.700Z,3.87
2018-06-21T12:48:07.151Z,4.40
2018-06-21T12:53:12.561Z,4.68
2018-06-21T12:58:25.011Z,4.47
2018-06-21T13:01:06.838Z,3.80
2018-06-21T13:04:01.434Z,3.80
2018-06-21T13:06:30.474Z,4.60
2018-06-21T13:14:21.980Z,4.10
2018-06-21T13:19:43.583Z,3.90
2018-06-21T13:22:12.644Z,3.87
2018-06-21T13:27:17.502Z,3.10
2018-06-21T13:29:47.522Z,3.50
2018-06-21T13:34:53.382Z,3.60
2018-06-21T13:37:22.423Z,2.90
2018-06-21T13:39:52.502Z,3.20
2018-06-21T13:42:21.552Z,3.60
2018-06-21T13:44:54.927Z,4.10
2018-06-21T13:47:24.174Z,3.80
2018-06-21T13:49:53.201Z,3.93
2018-06-21T13:52:31.496Z,4.60
2018-06-21T13:55:04.483Z,4.37
2018-06-21T13:57:45.413Z,3.57
2018-06-21T14:00:18.459Z,3.90
2018-06-21T14:02:51.024Z,3.83
2018-06-21T14:05:24.282Z,3.80
2018-06-21T14:07:57.864Z,3.53
2018-06-21T14:10:39.774Z,4.00
2018-06-21T14:13:12.014Z,4.43
2018-06-21T14:15:44.638Z,3.73
2018-06-21T14:18:13.677Z,4.00
2018-06-21T14:20:42.778Z,3.60
2018-06-21T14:23:11.787Z,4.20
2018-06-21T14:25:41.793Z,3.60
2018-06-21T14:28:11.037Z,3.90
2018-06-21T14:30:40.090Z,3.50
2018-06-21T14:33:09.184Z,3.50
2018-06-21T14:35:38.287Z,4.00
2018-06-21T14:38:07.349Z,3.90
2018-06-21T14:40:36.430Z,4.50
2018-06-21T14:43:05.578Z,4.10
2018-06-21T14:45:36.025Z,4.00
2018-06-21T14:48:05.114Z,4.50
2018-06-21T14:50:34.136Z,4.23
2018-06-21T14:53:03.549Z,4.12
2018-06-21T14:55:32.621Z,4.33
2018-06-21T14:58:02.065Z,3.70
2018-06-21T15:00:31.118Z,4.30
2018-06-21T15:03:01.054Z,4.33
2018-06-21T15:05:35.829Z,4.80
2018-06-21T15:08:05.138Z,4.30
2018-06-21T15:10:34.209Z,3.90
2018-06-21T15:13:03.287Z,4.60
2018-06-21T15:15:32.522Z,4.20
2018-06-21T15:18:01.598Z,3.83
2018-06-21T15:20:31.561Z,4.50
2018-06-21T15:23:00.767Z,4.10
2018-06-21T15:25:31.291Z,4.30
2018-06-21T15:28:00.332Z,4.60
2018-06-21T15:33:05.217Z,4.00
2018-06-21T15:35:34.340Z,4.40
2018-06-21T15:38:03.530Z,3.80
2018-06-21T15:40:33.307Z,4.00
2018-06-21T15:43:10.274Z,4.40
2018-06-21T15:45:39.534Z,4.20
2018-06-21T15:53:20.149Z,4.40
2018-06-21T15:55:52.554Z,3.90
2018-06-21T15:58:21.638Z,3.93
2018-06-21T16:00:50.672Z,3.80
2018-06-21T16:03:19.724Z,3.80
2018-06-21T16:05:53.768Z,4.20
2018-06-21T16:08:22.811Z,4.40
2018-06-21T16:11:04.367Z,3.83
2018-06-21T16:13:33.542Z,4.00
2018-06-21T16:18:38.446Z,3.70
2018-06-21T16:23:43.273Z,3.95
2018-06-21T16:26:12.363Z,3.90
2018-06-21T16:28:41.402Z,3.80
2018-06-21T16:33:46.246Z,3.30
2018-06-21T16:36:18.675Z,3.57
2018-06-21T16:38:56.404Z,3.70
2018-06-21T16:41:25.545Z,3.97
2018-06-21T16:44:02.137Z,3.70
2018-06-21T16:46:31.209Z,3.50
2018-06-21T16:49:01.996Z,3.33
2018-06-21T16:51:31.054Z,4.07
2018-06-21T16:56:46.598Z,3.78
2018-06-21T17:02:01.607Z,3.72
2018-06-21T17:04:30.655Z,3.70
2018-06-21T17:09:35.467Z,3.65
2018-06-21T17:12:04.501Z,3.80
2018-06-21T17:14:34.181Z,3.03
2018-06-21T17:17:03.245Z,4.20
2018-06-21T17:19:32.293Z,3.35
2018-06-21T17:22:01.496Z,3.37
2018-06-21T17:24:34.065Z,4.23
2018-06-21T17:27:03.130Z,3.50
2018-06-21T17:29:32.181Z,3.60
2018-06-21T17:32:03.151Z,4.20
2018-06-21T17:34:33.156Z,3.87
2018-06-21T17:37:03.352Z,3.33
2018-06-21T17:39:40.737Z,3.50
2018-06-21T17:42:09.963Z,3.33
2018-06-21T17:44:39.022Z,3.60
2018-06-21T17:47:08.070Z,3.87
2018-06-21T17:49:38.279Z,4.10
2018-06-21T17:52:07.365Z,3.83
2018-06-21T17:57:12.369Z,3.22
2018-06-21T17:59:41.415Z,3.10
2018-06-21T18:02:10.466Z,3.03
2018-06-21T18:04:39.603Z,3.10
2018-06-21T18:07:08.656Z,3.10
2018-06-21T18:12:13.536Z,2.72
2018-06-21T18:14:42.615Z,3.72
2018-06-21T18:19:47.503Z,3.55
2018-06-21T18:22:16.637Z,3.85
2018-06-21T18:24:45.897Z,3.33
2018-06-21T18:27:14.984Z,3.70
2018-06-21T18:29:44.041Z,3.20
2018-06-21T18:32:14.499Z,3.97
2018-06-21T18:34:43.565Z,3.73
2018-06-21T18:37:14.630Z,4.10
2018-06-21T18:39:43.693Z,3.80
2018-06-21T18:42:13.099Z,3.67
2018-06-21T18:44:43.233Z,4.15
2018-06-21T18:47:12.268Z,3.70
2018-06-21T18:49:41.321Z,4.50
2018-06-21T18:52:10.469Z,3.47
2018-06-21T18:54:39.519Z,4.13
2018-06-21T18:57:08.573Z,3.80
2018-06-21T18:59:37.909Z,3.90
2018-06-21T19:02:06.969Z,3.90
2018-06-21T19:04:36.083Z,3.77
2018-06-21T19:07:06.189Z,3.03
2018-06-21T19:12:32.630Z,3.30
2018-06-21T19:15:01.913Z,3.80
2018-06-21T19:20:06.715Z,3.50
2018-06-21T19:22:35.868Z,3.12
2018-06-21T19:25:04.976Z,3.30
2018-06-21T19:27:33.987Z,3.30
2018-06-21T19:30:03.736Z,3.20
2018-06-21T19:32:32.819Z,3.40
2018-06-21T19:35:01.869Z,2.77
2018-06-21T19:37:31.910Z,2.70
2018-06-21T19:40:02.101Z,2.83
2018-06-21T19:42:31.159Z,2.93
2018-06-21T19:45:00.214Z,2.90
2018-06-21T19:50:05.077Z,2.70
2018-06-21T19:52:35.102Z,3.07
2018-06-21T19:55:04.294Z,3.10
2018-06-21T19:57:35.842Z,2.90
2018-06-21T20:00:04.948Z,3.90
2018-06-21T20:02:33.993Z,3.90
2018-06-21T20:05:03.157Z,4.13
2018-06-21T20:07:32.347Z,4.20
2018-06-21T20:10:01.389Z,4.70
2018-06-21T20:15:06.234Z,4.35
2018-06-21T20:20:11.001Z,4.43
2018-06-21T20:22:40.078Z,4.43
2018-06-21T20:25:09.337Z,4.80
2018-06-21T20:27:38.613Z,4.77
2018-06-21T20:30:07.672Z,4.67
2018-06-21T20:32:36.725Z,4.93
2018-06-21T20:35:05.827Z,5.17
2018-06-21T20:37:34.884Z,4.77
2018-06-21T20:40:03.929Z,5.53
2018-06-21T20:42:33.126Z,5.10
2018-06-21T20:45:02.276Z,5.20
2018-06-21T20:50:07.602Z,5.40
2018-06-21T20:52:36.667Z,5.43
2018-06-21T20:55:05.721Z,5.20
2018-06-21T20:57:35.119Z,5.67
2018-06-21T21:00:04.165Z,5.57
2018-06-21T21:02:33.235Z,6.33
2018-06-21T21:05:02.284Z,6.27
2018-06-21T21:07:31.336Z,6.10
2018-06-21T21:10:00.387Z,7.00
2018-06-21T21:12:30.449Z,6.50
2018-06-21T21:14:59.548Z,5.60
2018-06-21T21:17:32.432Z,4.23
2018-06-21T21:20:01.710Z,3.67
2018-06-21T21:22:30.762Z,3.87
2018-06-21T21:24:59.830Z,3.53
2018-06-21T21:27:29.525Z,3.07
2018-06-21T21:29:58.595Z,2.53
2018-06-21T21:32:27.651Z,2.50
2018-06-21T21:34:56.893Z,2.53
2018-06-21T21:37:26.185Z,2.20
2018-06-21T21:47:43.218Z,2.47
2018-06-21T21:50:12.278Z,2.20
2018-06-21T21:52:41.392Z,2.27
2018-06-21T21:55:10.738Z,2.77
2018-06-21T21:57:39.786Z,2.13
2018-06-21T22:00:08.856Z,1.93
2018-06-21T22:02:43.979Z,1.60
2018-06-21T22:05:14.531Z,2.10
2018-06-21T22:07:45.541Z,2.00
2018-06-21T22:10:16.699Z,1.87
2018-06-21T22:12:48.717Z,2.10
2018-06-21T22:15:19.637Z,2.37
2018-06-21T22:20:27.659Z,1.70
2018-06-21T22:23:00.349Z,2.70
2018-06-21T22:25:33.317Z,1.77
2018-06-21T22:30:43.759Z,1.80
2018-06-21T22:33:14.949Z,1.50
2018-06-21T22:35:45.625Z,2.00
2018-06-21T22:38:16.692Z,1.80
2018-06-21T22:40:49.945Z,1.80
2018-06-21T22:43:21.188Z,2.57
2018-06-21T22:45:52.909Z,1.87
2018-06-21T22:48:24.106Z,1.63
2018-06-21T22:50:56.319Z,2.30
2018-06-21T22:53:29.143Z,1.80
2018-06-21T22:56:03.172Z,1.83
2018-06-21T22:58:36.037Z,1.77
2018-06-21T23:01:08.768Z,1.70
2018-06-21T23:03:41.784Z,1.80
2018-06-21T23:06:14.650Z,1.47
2018-06-21T23:08:47.521Z,1.50
2018-06-21T23:11:19.423Z,1.33
2018-06-21T23:16:27.607Z,1.70
2018-06-21T23:21:37.704Z,1.70
2018-06-21T23:24:09.558Z,1.67
2018-06-21T23:26:43.164Z,1.40
2018-06-21T23:29:15.916Z,2.00
2018-06-21T23:34:25.054Z,1.52
2018-06-21T23:36:58.652Z,1.53
2018-06-21T23:39:33.592Z,1.53
2018-06-21T23:42:08.218Z,1.43
2018-06-21T23:44:41.986Z,1.50
2018-06-21T23:47:14.217Z,2.23
2018-06-21T23:49:46.827Z,1.73
2018-06-21T23:52:19.739Z,1.70
2018-06-21T23:54:52.326Z,1.60
2018-06-21T23:57:25.903Z,1.43
2018-06-21T23:59:58.137Z,1.50
